sensor_id;sensor_type;location;lat;lon;timestamp;P1;durP1;ratioP1;P2;durP2;ratioP2
3696;SDS011;60662;48.810;8.872;2023-02-15T08:34:25;28.13;;;15.27;;
3696;SDS011;60662;48.810;8.872;2023-02-15T08:35:27;30.77;;;14.88;;
3696;SDS011;60662;48.810;8.872;2023-02-15T08:36:29;35.00;;;15.15;;
3696;SDS011;60662;48.810;8.872;2023-02-15T08:37:32;27.70;;;15.02;;
3696;SDS011;60662;48.810;8.872;2023-02-15T08:38:34;33.17;;;14.90;;
3696;SDS011;60662;48.810;8.872;2023-02-15T08:39:35;26.98;;;15.00;;
3696;SDS011;60662;48.810;8.872;2023-02-15T08:40:37;47.55;;;15.07;;
3696;SDS011;60662;48.810;8.872;2023-02-15T08:41:39;38.30;;;14.25;;
3696;SDS011;60662;48.810;8.872;2023-02-15T08:42:43;40.92;;;13.75;;
3696;SDS011;60662;48.810;8.872;2023-02-15T08:43:45;34.90;;;15.90;;
3696;SDS011;60662;48.810;8.872;2023-02-15T08:44:49;35.50;;;13.98;;
3696;SDS011;60662;48.810;8.872;2023-02-15T08:45:52;24.90;;;14.75;;
3696;SDS011;60662;48.810;8.872;2023-02-15T08:46:54;26.33;;;14.77;;
3696;SDS011;60662;48.810;8.872;2023-02-15T08:47:55;34.95;;;14.63;;
3696;SDS011;60662;48.810;8.872;2023-02-15T08:48:57;32.08;;;15.18;;
3696;SDS011;60662;48.810;8.872;2023-02-15T08:49:59;28.67;;;16.60;;
3696;SDS011;60662;48.810;8.872;2023-02-15T08:51:07;29.98;;;15.90;;
3696;SDS011;60662;48.810;8.872;2023-02-15T08:52:28;28.65;;;17.23;;
3696;SDS011;60662;48.810;8.872;2023-02-15T08:53:30;24.15;;;16.48;;
3696;SDS011;60662;48.810;8.872;2023-02-15T08:54:31;24.60;;;17.05;;
3696;SDS011;60662;48.810;8.872;2023-02-15T08:55:32;31.58;;;17.40;;
3696;SDS011;60662;48.810;8.872;2023-02-15T08:56:35;28.20;;;15.40;;
3696;SDS011;60662;48.810;8.872;2023-02-15T08:57:38;32.88;;;16.70;;
3696;SDS011;60662;48.810;8.872;2023-02-15T08:58:45;27.33;;;16.67;;
3696;SDS011;60662;48.810;8.872;2023-02-15T08:59:47;30.63;;;17.38;;
3696;SDS011;60662;48.810;8.872;2023-02-15T09:00:49;30.10;;;17.77;;
3696;SDS011;60662;48.810;8.872;2023-02-15T09:01:52;30.63;;;16.83;;
3696;SDS011;60662;48.810;8.872;2023-02-15T09:02:54;25.10;;;16.55;;
3696;SDS011;60662;48.810;8.872;2023-02-15T09:04:03;32.17;;;17.83;;
3696;SDS011;60662;48.810;8.872;2023-02-15T09:05:07;29.20;;;16.63;;
3696;SDS011;60662;48.810;8.872;2023-02-15T09:06:08;28.42;;;16.90;;
3696;SDS011;60662;48.810;8.872;2023-02-15T09:07:10;36.63;;;16.50;;
3696;SDS011;60662;48.810;8.872;2023-02-15T09:08:11;31.00;;;17.42;;
3696;SDS011;60662;48.810;8.872;2023-02-15T09:09:13;46.42;;;16.65;;
3696;SDS011;60662;48.810;8.872;2023-02-15T09:10:14;38.65;;;16.75;;
3696;SDS011;60662;48.810;8.872;2023-02-15T09:11:36;31.08;;;16.95;;
3696;SDS011;60662;48.810;8.872;2023-02-15T09:12:39;37.35;;;15.23;;
3696;SDS011;60662;48.810;8.872;2023-02-15T09:13:40;34.58;;;17.35;;
3696;SDS011;60662;48.810;8.872;2023-02-15T09:14:42;23.23;;;14.32;;
3696;SDS011;60662;48.810;8.872;2023-02-15T09:15:43;28.67;;;15.80;;
3696;SDS011;60662;48.810;8.872;2023-02-15T09:16:45;28.00;;;16.08;;
3696;SDS011;60662;48.810;8.872;2023-02-15T09:17:49;25.67;;;15.27;;
3696;SDS011;60662;48.810;8.872;2023-02-15T09:18:51;37.80;;;15.45;;
3696;SDS011;60662;48.810;8.872;2023-02-15T09:19:53;27.77;;;14.75;;
3696;SDS011;60662;48.810;8.872;2023-02-15T09:20:54;32.22;;;16.08;;
3696;SDS011;60662;48.810;8.872;2023-02-15T09:21:56;28.30;;;15.07;;
3696;SDS011;60662;48.810;8.872;2023-02-15T09:22:59;26.80;;;15.27;;
3696;SDS011;60662;48.810;8.872;2023-02-15T09:24:02;24.10;;;14.95;;
3696;SDS011;60662;48.810;8.872;2023-02-15T09:25:06;26.25;;;14.50;;
3696;SDS011;60662;48.810;8.872;2023-02-15T09:26:11;35.67;;;14.88;;
3696;SDS011;60662;48.810;8.872;2023-02-15T09:27:15;22.70;;;14.30;;
3696;SDS011;60662;48.810;8.872;2023-02-15T09:28:16;22.48;;;13.65;;
3696;SDS011;60662;48.810;8.872;2023-02-15T09:29:18;27.67;;;13.70;;
3696;SDS011;60662;48.810;8.872;2023-02-15T09:30:21;26.23;;;14.45;;
3696;SDS011;60662;48.810;8.872;2023-02-15T09:31:23;25.60;;;15.02;;
3696;SDS011;60662;48.810;8.872;2023-02-15T09:32:27;27.08;;;15.80;;
3696;SDS011;60662;48.810;8.872;2023-02-15T09:33:28;31.65;;;14.95;;
3696;SDS011;60662;48.810;8.872;2023-02-15T09:34:30;30.05;;;15.10;;
3696;SDS011;60662;48.810;8.872;2023-02-15T09:35:34;23.95;;;13.35;;
3696;SDS011;60662;48.810;8.872;2023-02-15T09:36:36;32.30;;;14.43;;
3696;SDS011;60662;48.810;8.872;2023-02-15T09:37:39;22.00;;;13.73;;
3696;SDS011;60662;48.810;8.872;2023-02-15T09:38:40;18.23;;;12.52;;
3696;SDS011;60662;48.810;8.872;2023-02-15T09:39:42;29.60;;;14.43;;
3696;SDS011;60662;48.810;8.872;2023-02-15T09:40:49;22.42;;;13.15;;
3696;SDS011;60662;48.810;8.872;2023-02-15T09:42:16;23.63;;;12.55;;
3696;SDS011;60662;48.810;8.872;2023-02-15T09:49:16;21.20;;;13.50;;
3696;SDS011;60662;48.810;8.872;2023-02-15T09:52:12;18.83;;;10.90;;
3696;SDS011;60662;48.810;8.872;2023-02-15T09:53:32;32.40;;;13.70;;
3696;SDS011;60662;48.810;8.872;2023-02-15T09:56:06;27.63;;;12.95;;
3696;SDS011;60662;48.810;8.872;2023-02-15T09:57:20;21.63;;;12.80;;
3696;SDS011;60662;48.810;8.872;2023-02-15T10:02:27;16.17;;;11.23;;
3696;SDS011;60662;48.810;8.872;2023-02-15T10:03:42;18.65;;;12.70;;
3696;SDS011;60662;48.810;8.872;2023-02-15T10:05:05;21.58;;;13.15;;
3696;SDS011;60662;48.810;8.872;2023-02-15T10:06:19;41.28;;;11.88;;
3696;SDS011;60662;48.810;8.872;2023-02-15T10:07:48;21.83;;;11.80;;
3696;SDS011;60662;48.810;8.872;2023-02-15T10:10:22;18.73;;;12.60;;
3696;SDS011;60662;48.810;8.872;2023-02-15T10:11:39;21.88;;;12.50;;
3696;SDS011;60662;48.810;8.872;2023-02-15T10:12:57;19.25;;;12.68;;
3696;SDS011;60662;48.810;8.872;2023-02-15T10:14:03;19.55;;;12.30;;
3696;SDS011;60662;48.810;8.872;2023-02-15T10:16:35;29.67;;;11.40;;
3696;SDS011;60662;48.810;8.872;2023-02-15T10:19:25;19.73;;;10.55;;
3696;SDS011;60662;48.810;8.872;2023-02-15T10:20:55;17.65;;;10.10;;
3696;SDS011;60662;48.810;8.872;2023-02-15T10:22:11;19.70;;;10.77;;
3696;SDS011;60662;48.810;8.872;2023-02-15T10:26:14;16.60;;;11.23;;
3696;SDS011;60662;48.810;8.872;2023-02-15T10:27:28;17.95;;;10.70;;
3696;SDS011;60662;48.810;8.872;2023-02-15T10:28:39;18.95;;;10.30;;
3696;SDS011;60662;48.810;8.872;2023-02-15T10:29:51;22.25;;;11.43;;
3696;SDS011;60662;48.810;8.872;2023-02-15T10:31:03;22.48;;;10.82;;
3696;SDS011;60662;48.810;8.872;2023-02-15T10:34:39;18.02;;;11.20;;
3696;SDS011;60662;48.810;8.872;2023-02-15T10:36:05;16.98;;;9.80;;
3696;SDS011;60662;48.810;8.872;2023-02-15T10:37:21;20.00;;;11.68;;
3696;SDS011;60662;48.810;8.872;2023-02-15T10:38:40;18.10;;;10.43;;
3696;SDS011;60662;48.810;8.872;2023-02-15T10:39:48;16.13;;;9.93;;
3696;SDS011;60662;48.810;8.872;2023-02-15T10:49:17;18.77;;;9.73;;
3696;SDS011;60662;48.810;8.872;2023-02-15T10:54:38;20.33;;;10.73;;
3696;SDS011;60662;48.810;8.872;2023-02-15T10:55:58;22.92;;;10.50;;
3696;SDS011;60662;48.810;8.872;2023-02-15T10:59:33;16.60;;;9.40;;
3696;SDS011;60662;48.810;8.872;2023-02-15T11:01:12;14.45;;;9.80;;
3696;SDS011;60662;48.810;8.872;2023-02-15T11:02:33;20.92;;;11.23;;
3696;SDS011;60662;48.810;8.872;2023-02-15T11:05:45;18.58;;;10.27;;
3696;SDS011;60662;48.810;8.872;2023-02-15T11:08:31;18.63;;;10.98;;
3696;SDS011;60662;48.810;8.872;2023-02-15T11:09:38;18.77;;;10.98;;
3696;SDS011;60662;48.810;8.872;2023-02-15T11:11:52;19.95;;;9.20;;
3696;SDS011;60662;48.810;8.872;2023-02-15T11:12:58;17.13;;;9.70;;
3696;SDS011;60662;48.810;8.872;2023-02-15T11:14:14;14.25;;;9.40;;
3696;SDS011;60662;48.810;8.872;2023-02-15T11:16:36;19.10;;;8.77;;
3696;SDS011;60662;48.810;8.872;2023-02-15T11:17:43;12.75;;;7.95;;
3696;SDS011;60662;48.810;8.872;2023-02-15T11:18:53;24.60;;;8.43;;
3696;SDS011;60662;48.810;8.872;2023-02-15T11:22:17;16.38;;;9.55;;
3696;SDS011;60662;48.810;8.872;2023-02-15T11:23:19;15.48;;;8.70;;
3696;SDS011;60662;48.810;8.872;2023-02-15T11:24:25;14.10;;;8.25;;
3696;SDS011;60662;48.810;8.872;2023-02-15T11:25:32;15.73;;;8.20;;
3696;SDS011;60662;48.810;8.872;2023-02-15T11:27:58;17.63;;;9.88;;
3696;SDS011;60662;48.810;8.872;2023-02-15T11:29:10;15.98;;;8.32;;
3696;SDS011;60662;48.810;8.872;2023-02-15T11:30:24;16.80;;;9.63;;
3696;SDS011;60662;48.810;8.872;2023-02-15T11:31:31;18.67;;;9.35;;
3696;SDS011;60662;48.810;8.872;2023-02-15T11:32:46;20.67;;;8.73;;
3696;SDS011;60662;48.810;8.872;2023-02-15T11:33:53;14.55;;;8.20;;
3696;SDS011;60662;48.810;8.872;2023-02-15T11:36:20;14.48;;;8.45;;
3696;SDS011;60662;48.810;8.872;2023-02-15T11:38:41;23.25;;;8.20;;
3696;SDS011;60662;48.810;8.872;2023-02-15T11:39:45;12.20;;;8.27;;
3696;SDS011;60662;48.810;8.872;2023-02-15T11:40:56;14.90;;;8.35;;
3696;SDS011;60662;48.810;8.872;2023-02-15T11:42:06;14.32;;;8.45;;
3696;SDS011;60662;48.810;8.872;2023-02-15T11:43:32;14.70;;;8.57;;
3696;SDS011;60662;48.810;8.872;2023-02-15T11:44:42;14.70;;;8.18;;
3696;SDS011;60662;48.810;8.872;2023-02-15T11:46:13;19.45;;;7.75;;
3696;SDS011;60662;48.810;8.872;2023-02-15T11:47:15;20.63;;;8.30;;
3696;SDS011;60662;48.810;8.872;2023-02-15T11:48:17;14.00;;;8.75;;
3696;SDS011;60662;48.810;8.872;2023-02-15T11:50:24;16.95;;;7.45;;
3696;SDS011;60662;48.810;8.872;2023-02-15T11:51:28;15.82;;;8.30;;
3696;SDS011;60662;48.810;8.872;2023-02-15T11:52:30;12.77;;;8.07;;
3696;SDS011;60662;48.810;8.872;2023-02-15T11:53:32;15.98;;;7.70;;
3696;SDS011;60662;48.810;8.872;2023-02-15T11:54:39;13.82;;;7.57;;
3696;SDS011;60662;48.810;8.872;2023-02-15T11:55:46;15.38;;;6.50;;
3696;SDS011;60662;48.810;8.872;2023-02-15T11:56:49;20.75;;;6.00;;
3696;SDS011;60662;48.810;8.872;2023-02-15T11:57:56;20.08;;;6.13;;
3696;SDS011;60662;48.810;8.872;2023-02-15T11:59:04;13.57;;;5.53;;
3696;SDS011;60662;48.810;8.872;2023-02-15T12:01:37;15.15;;;6.05;;
3696;SDS011;60662;48.810;8.872;2023-02-15T12:02:49;13.25;;;5.55;;
3696;SDS011;60662;48.810;8.872;2023-02-15T12:04:12;16.08;;;5.68;;
3696;SDS011;60662;48.810;8.872;2023-02-15T12:05:20;15.00;;;5.95;;
3696;SDS011;60662;48.810;8.872;2023-02-15T12:06:27;13.85;;;4.85;;
3696;SDS011;60662;48.810;8.872;2023-02-15T12:07:32;10.48;;;6.30;;
3696;SDS011;60662;48.810;8.872;2023-02-15T12:08:38;12.05;;;7.38;;
3696;SDS011;60662;48.810;8.872;2023-02-15T12:10:59;12.75;;;7.38;;
3696;SDS011;60662;48.810;8.872;2023-02-15T12:13:34;11.88;;;7.10;;
3696;SDS011;60662;48.810;8.872;2023-02-15T12:14:54;12.98;;;7.57;;
3696;SDS011;60662;48.810;8.872;2023-02-15T12:15:57;12.25;;;8.23;;
3696;SDS011;60662;48.810;8.872;2023-02-15T12:17:12;13.25;;;7.53;;
3696;SDS011;60662;48.810;8.872;2023-02-15T12:18:18;10.30;;;7.38;;
3696;SDS011;60662;48.810;8.872;2023-02-15T12:19:31;17.45;;;8.85;;
3696;SDS011;60662;48.810;8.872;2023-02-15T12:20:38;8.98;;;7.05;;
3696;SDS011;60662;48.810;8.872;2023-02-15T12:21:40;11.57;;;7.80;;
3696;SDS011;60662;48.810;8.872;2023-02-15T12:22:46;10.68;;;7.43;;
3696;SDS011;60662;48.810;8.872;2023-02-15T12:23:55;9.20;;;7.13;;
3696;SDS011;60662;48.810;8.872;2023-02-15T12:25:21;14.32;;;8.70;;
3696;SDS011;60662;48.810;8.872;2023-02-15T12:26:27;12.02;;;7.97;;
3696;SDS011;60662;48.810;8.872;2023-02-15T12:27:34;12.18;;;8.80;;
3696;SDS011;60662;48.810;8.872;2023-02-15T12:28:37;14.73;;;9.18;;
3696;SDS011;60662;48.810;8.872;2023-02-15T12:29:46;11.50;;;8.38;;
3696;SDS011;60662;48.810;8.872;2023-02-15T12:30:54;14.43;;;9.00;;
3696;SDS011;60662;48.810;8.872;2023-02-15T12:31:57;10.60;;;8.15;;
3696;SDS011;60662;48.810;8.872;2023-02-15T12:33:43;15.30;;;8.55;;
3696;SDS011;60662;48.810;8.872;2023-02-15T12:34:37;11.45;;;7.93;;
3696;SDS011;60662;48.810;8.872;2023-02-15T12:35:44;12.25;;;8.02;;
3696;SDS011;60662;48.810;8.872;2023-02-15T12:36:54;9.40;;;7.15;;
3696;SDS011;60662;48.810;8.872;2023-02-15T12:40:46;12.65;;;8.70;;
3696;SDS011;60662;48.810;8.872;2023-02-15T12:41:45;12.93;;;8.82;;
3696;SDS011;60662;48.810;8.872;2023-02-15T12:42:57;12.85;;;8.32;;
3696;SDS011;60662;48.810;8.872;2023-02-15T12:44:04;12.88;;;8.98;;
3696;SDS011;60662;48.810;8.872;2023-02-15T12:46:31;13.65;;;8.25;;
3696;SDS011;60662;48.810;8.872;2023-02-15T12:47:38;12.25;;;8.80;;
3696;SDS011;60662;48.810;8.872;2023-02-15T12:48:39;14.02;;;8.90;;
3696;SDS011;60662;48.810;8.872;2023-02-15T12:49:41;15.20;;;8.05;;
3696;SDS011;60662;48.810;8.872;2023-02-15T12:50:48;15.48;;;8.40;;
3696;SDS011;60662;48.810;8.872;2023-02-15T12:52:02;13.82;;;8.50;;
3696;SDS011;60662;48.810;8.872;2023-02-15T12:54:38;13.45;;;8.65;;
3696;SDS011;60662;48.810;8.872;2023-02-15T12:56:57;13.77;;;8.57;;
3696;SDS011;60662;48.810;8.872;2023-02-15T12:58:16;12.75;;;7.88;;
3696;SDS011;60662;48.810;8.872;2023-02-15T12:59:19;12.43;;;7.28;;
3696;SDS011;60662;48.810;8.872;2023-02-15T13:00:25;11.25;;;7.28;;
3696;SDS011;60662;48.810;8.872;2023-02-15T13:01:28;16.23;;;8.70;;
3696;SDS011;60662;48.810;8.872;2023-02-15T13:02:43;15.65;;;9.05;;
3696;SDS011;60662;48.810;8.872;2023-02-15T13:05:04;21.25;;;9.65;;
3696;SDS011;60662;48.810;8.872;2023-02-15T13:06:19;18.08;;;9.63;;
3696;SDS011;60662;48.810;8.872;2023-02-15T13:07:22;14.52;;;8.50;;
3696;SDS011;60662;48.810;8.872;2023-02-15T13:08:27;18.92;;;8.93;;
3696;SDS011;60662;48.810;8.872;2023-02-15T13:10:41;15.27;;;8.05;;
3696;SDS011;60662;48.810;8.872;2023-02-15T13:11:53;17.88;;;8.80;;
3696;SDS011;60662;48.810;8.872;2023-02-15T13:12:56;13.05;;;8.32;;
3696;SDS011;60662;48.810;8.872;2023-02-15T13:14:00;10.20;;;7.18;;
3696;SDS011;60662;48.810;8.872;2023-02-15T13:15:22;36.55;;;22.52;;
3696;SDS011;60662;48.810;8.872;2023-02-15T13:16:45;179.02;;;112.65;;
3696;SDS011;60662;48.810;8.872;2023-02-15T13:17:49;73.82;;;45.78;;
3696;SDS011;60662;48.810;8.872;2023-02-15T13:18:50;16.33;;;10.85;;
3696;SDS011;60662;48.810;8.872;2023-02-15T13:19:53;14.57;;;6.45;;
3696;SDS011;60662;48.810;8.872;2023-02-15T13:21:00;12.68;;;6.60;;
3696;SDS011;60662;48.810;8.872;2023-02-15T13:22:17;9.15;;;6.05;;
3696;SDS011;60662;48.810;8.872;2023-02-15T13:23:29;10.88;;;6.57;;
3696;SDS011;60662;48.810;8.872;2023-02-15T13:24:35;12.95;;;5.38;;
3696;SDS011;60662;48.810;8.872;2023-02-15T13:25:42;11.63;;;6.55;;
3696;SDS011;60662;48.810;8.872;2023-02-15T13:26:52;9.10;;;5.88;;
3696;SDS011;60662;48.810;8.872;2023-02-15T13:28:14;8.00;;;5.82;;
3696;SDS011;60662;48.810;8.872;2023-02-15T13:29:24;9.90;;;5.75;;
3696;SDS011;60662;48.810;8.872;2023-02-15T13:30:30;7.70;;;5.82;;
3696;SDS011;60662;48.810;8.872;2023-02-15T13:31:36;11.10;;;5.88;;
3696;SDS011;60662;48.810;8.872;2023-02-15T13:32:38;9.15;;;5.72;;
3696;SDS011;60662;48.810;8.872;2023-02-15T13:33:42;9.93;;;5.65;;
3696;SDS011;60662;48.810;8.872;2023-02-15T13:34:48;9.55;;;5.72;;
3696;SDS011;60662;48.810;8.872;2023-02-15T13:36:12;7.97;;;5.85;;
3696;SDS011;60662;48.810;8.872;2023-02-15T13:37:43;9.70;;;5.57;;
3696;SDS011;60662;48.810;8.872;2023-02-15T13:40:18;9.82;;;6.07;;
3696;SDS011;60662;48.810;8.872;2023-02-15T13:44:47;11.25;;;5.72;;
3696;SDS011;60662;48.810;8.872;2023-02-15T13:47:17;11.70;;;6.30;;
3696;SDS011;60662;48.810;8.872;2023-02-15T13:49:53;9.82;;;7.00;;
3696;SDS011;60662;48.810;8.872;2023-02-15T13:53:32;10.27;;;6.32;;
3696;SDS011;60662;48.810;8.872;2023-02-15T14:11:01;15.98;;;7.72;;
3696;SDS011;60662;48.810;8.872;2023-02-15T14:16:03;13.05;;;8.50;;
3696;SDS011;60662;48.810;8.872;2023-02-15T14:19:45;11.23;;;7.72;;
3696;SDS011;60662;48.810;8.872;2023-02-15T14:25:52;39.60;;;27.48;;
3696;SDS011;60662;48.810;8.872;2023-02-15T14:28:37;10.30;;;7.55;;
3696;SDS011;60662;48.810;8.872;2023-02-15T14:29:45;10.60;;;7.43;;
3696;SDS011;60662;48.810;8.872;2023-02-15T14:30:50;21.48;;;9.35;;
3696;SDS011;60662;48.810;8.872;2023-02-15T14:31:55;15.07;;;8.10;;
3696;SDS011;60662;48.810;8.872;2023-02-15T14:33:06;14.93;;;8.02;;
3696;SDS011;60662;48.810;8.872;2023-02-15T14:34:23;14.98;;;8.73;;
3696;SDS011;60662;48.810;8.872;2023-02-15T14:35:29;17.40;;;7.75;;
3696;SDS011;60662;48.810;8.872;2023-02-15T14:36:31;17.70;;;8.48;;
3696;SDS011;60662;48.810;8.872;2023-02-15T14:39:34;15.93;;;8.32;;
3696;SDS011;60662;48.810;8.872;2023-02-15T14:41:11;19.20;;;8.25;;
3696;SDS011;60662;48.810;8.872;2023-02-15T14:45:01;18.05;;;9.05;;
3696;SDS011;60662;48.810;8.872;2023-02-15T14:46:16;15.60;;;9.60;;
3696;SDS011;60662;48.810;8.872;2023-02-15T14:47:28;16.85;;;8.60;;
3696;SDS011;60662;48.810;8.872;2023-02-15T14:48:42;46.33;;;26.48;;
3696;SDS011;60662;48.810;8.872;2023-02-15T14:49:47;53.13;;;34.55;;
3696;SDS011;60662;48.810;8.872;2023-02-15T14:50:49;44.08;;;23.67;;
3696;SDS011;60662;48.810;8.872;2023-02-15T14:55:39;19.58;;;9.85;;
3696;SDS011;60662;48.810;8.872;2023-02-15T14:56:40;22.88;;;10.00;;
3696;SDS011;60662;48.810;8.872;2023-02-15T14:57:42;14.75;;;9.40;;
3696;SDS011;60662;48.810;8.872;2023-02-15T14:58:58;17.10;;;9.45;;
3696;SDS011;60662;48.810;8.872;2023-02-15T15:00:28;14.77;;;9.88;;
3696;SDS011;60662;48.810;8.872;2023-02-15T15:01:41;16.55;;;9.65;;
3696;SDS011;60662;48.810;8.872;2023-02-15T15:02:51;18.33;;;11.00;;
3696;SDS011;60662;48.810;8.872;2023-02-15T15:03:54;16.10;;;9.95;;
3696;SDS011;60662;48.810;8.872;2023-02-15T15:05:01;18.35;;;10.80;;
3696;SDS011;60662;48.810;8.872;2023-02-15T15:06:22;17.08;;;10.50;;
3696;SDS011;60662;48.810;8.872;2023-02-15T15:07:47;16.30;;;10.40;;
3696;SDS011;60662;48.810;8.872;2023-02-15T15:08:51;19.20;;;9.93;;
3696;SDS011;60662;48.810;8.872;2023-02-15T15:12:44;17.38;;;11.85;;
3696;SDS011;60662;48.810;8.872;2023-02-15T15:13:53;24.30;;;11.88;;
3696;SDS011;60662;48.810;8.872;2023-02-15T15:14:56;18.33;;;11.63;;
3696;SDS011;60662;48.810;8.872;2023-02-15T15:18:46;29.73;;;14.00;;
3696;SDS011;60662;48.810;8.872;2023-02-15T15:20:52;26.27;;;14.02;;
3696;SDS011;60662;48.810;8.872;2023-02-15T15:21:54;23.10;;;14.20;;
3696;SDS011;60662;48.810;8.872;2023-02-15T15:26:39;29.48;;;17.15;;
3696;SDS011;60662;48.810;8.872;2023-02-15T15:27:51;31.63;;;18.80;;
3696;SDS011;60662;48.810;8.872;2023-02-15T15:28:56;35.60;;;16.80;;
3696;SDS011;60662;48.810;8.872;2023-02-15T15:29:59;23.92;;;16.50;;
3696;SDS011;60662;48.810;8.872;2023-02-15T15:32:22;40.40;;;21.92;;
3696;SDS011;60662;48.810;8.872;2023-02-15T15:35:29;39.20;;;22.63;;
3696;SDS011;60662;48.810;8.872;2023-02-15T15:49:10;27.33;;;16.35;;
3696;SDS011;60662;48.810;8.872;2023-02-15T15:50:17;27.17;;;16.00;;
3696;SDS011;60662;48.810;8.872;2023-02-15T15:51:21;31.98;;;17.33;;
3696;SDS011;60662;48.810;8.872;2023-02-15T15:52:30;28.67;;;15.90;;
3696;SDS011;60662;48.810;8.872;2023-02-15T15:53:40;41.88;;;17.70;;
3696;SDS011;60662;48.810;8.872;2023-02-15T15:54:46;35.38;;;17.92;;
3696;SDS011;60662;48.810;8.872;2023-02-15T15:55:52;32.45;;;18.75;;
3696;SDS011;60662;48.810;8.872;2023-02-15T15:57:00;41.55;;;21.52;;
3696;SDS011;60662;48.810;8.872;2023-02-15T15:58:05;40.05;;;20.85;;
3696;SDS011;60662;48.810;8.872;2023-02-15T15:59:11;43.45;;;18.55;;
3696;SDS011;60662;48.810;8.872;2023-02-15T16:00:29;36.67;;;19.50;;
3696;SDS011;60662;48.810;8.872;2023-02-15T16:01:55;39.85;;;19.50;;
3696;SDS011;60662;48.810;8.872;2023-02-15T16:02:57;30.33;;;19.90;;
3696;SDS011;60662;48.810;8.872;2023-02-15T16:03:58;37.75;;;20.35;;
3696;SDS011;60662;48.810;8.872;2023-02-15T16:05:07;30.23;;;19.67;;
3696;SDS011;60662;48.810;8.872;2023-02-15T16:06:31;29.63;;;19.00;;
3696;SDS011;60662;48.810;8.872;2023-02-15T16:07:36;31.45;;;17.20;;
3696;SDS011;60662;48.810;8.872;2023-02-15T16:08:41;31.25;;;17.42;;
3696;SDS011;60662;48.810;8.872;2023-02-15T16:09:55;32.22;;;16.52;;
3696;SDS011;60662;48.810;8.872;2023-02-15T16:11:00;28.08;;;17.70;;
3696;SDS011;60662;48.810;8.872;2023-02-15T16:12:14;38.63;;;19.35;;
3696;SDS011;60662;48.810;8.872;2023-02-15T16:13:18;38.35;;;19.55;;
3696;SDS011;60662;48.810;8.872;2023-02-15T16:14:29;37.88;;;21.70;;
3696;SDS011;60662;48.810;8.872;2023-02-15T16:15:37;36.85;;;20.85;;
3696;SDS011;60662;48.810;8.872;2023-02-15T16:16:55;47.00;;;21.73;;
3696;SDS011;60662;48.810;8.872;2023-02-15T16:17:58;37.80;;;21.45;;
3696;SDS011;60662;48.810;8.872;2023-02-15T16:19:01;40.10;;;22.83;;
3696;SDS011;60662;48.810;8.872;2023-02-15T16:20:11;37.53;;;21.00;;
3696;SDS011;60662;48.810;8.872;2023-02-15T16:21:20;37.05;;;20.60;;
3696;SDS011;60662;48.810;8.872;2023-02-15T16:22:24;37.30;;;20.52;;
3696;SDS011;60662;48.810;8.872;2023-02-15T16:24:41;47.10;;;24.50;;
3696;SDS011;60662;48.810;8.872;2023-02-15T16:28:38;128.00;;;60.38;;
3696;SDS011;60662;48.810;8.872;2023-02-15T16:29:40;207.55;;;101.50;;
3696;SDS011;60662;48.810;8.872;2023-02-15T16:30:41;319.88;;;159.35;;
3696;SDS011;60662;48.810;8.872;2023-02-15T16:31:56;307.40;;;143.10;;
3696;SDS011;60662;48.810;8.872;2023-02-15T16:33:21;404.02;;;183.38;;
3696;SDS011;60662;48.810;8.872;2023-02-15T16:34:22;374.80;;;174.60;;
3696;SDS011;60662;48.810;8.872;2023-02-15T16:35:24;429.23;;;183.95;;
3696;SDS011;60662;48.810;8.872;2023-02-15T16:36:26;445.17;;;196.35;;
3696;SDS011;60662;48.810;8.872;2023-02-15T16:37:33;413.13;;;173.68;;
3696;SDS011;60662;48.810;8.872;2023-02-15T16:39:43;207.52;;;96.93;;
3696;SDS011;60662;48.810;8.872;2023-02-15T16:40:51;142.02;;;71.15;;
3696;SDS011;60662;48.810;8.872;2023-02-15T16:41:56;115.82;;;58.72;;
3696;SDS011;60662;48.810;8.872;2023-02-15T16:43:00;105.45;;;53.40;;
3696;SDS011;60662;48.810;8.872;2023-02-15T16:44:06;74.15;;;39.10;;
3696;SDS011;60662;48.810;8.872;2023-02-15T16:45:15;64.93;;;33.53;;
